createdAt,value
2019-01-29T00:00:30.061Z,1.40
2019-01-29T00:03:09.557Z,1.40
2019-01-29T00:05:51.476Z,1.40
2019-01-29T00:08:31.639Z,1.50
2019-01-29T00:11:10.725Z,1.50
2019-01-29T00:13:50.617Z,1.50
2019-01-29T00:16:29.705Z,1.50
2019-01-29T00:19:06.915Z,1.50
2019-01-29T00:21:52.973Z,1.50
2019-01-29T00:24:32.185Z,1.50
2019-01-29T00:27:11.989Z,1.50
2019-01-29T00:29:54.075Z,1.50
2019-01-29T00:32:33.306Z,1.50
2019-01-29T00:35:12.497Z,1.50
2019-01-29T00:37:51.606Z,1.50
2019-01-29T00:40:30.821Z,1.50
2019-01-29T00:43:10.226Z,1.50
2019-01-29T00:45:49.397Z,1.40
2019-01-29T00:48:29.404Z,1.40
2019-01-29T00:51:08.480Z,1.30
2019-01-29T00:53:50.788Z,1.30
2019-01-29T00:56:29.853Z,1.20
2019-01-29T00:59:09.809Z,1.20
2019-01-29T01:01:51.833Z,1.20
2019-01-29T01:04:30.939Z,1.10
2019-01-29T01:07:10.919Z,1.10
2019-01-29T01:09:57.033Z,1.10
2019-01-29T01:12:35.163Z,1.10
2019-01-29T01:15:34.417Z,1.10
2019-01-29T01:18:33.682Z,1.10
2019-01-29T01:21:33.093Z,1.00
2019-01-29T01:24:12.494Z,1.00
2019-01-29T01:26:52.498Z,0.90
2019-01-29T01:29:35.033Z,0.90
2019-01-29T01:32:15.045Z,0.90
2019-01-29T01:34:54.242Z,0.90
2019-01-29T01:37:33.470Z,0.90
2019-01-29T01:40:12.711Z,0.80
2019-01-29T01:42:52.750Z,0.80
2019-01-29T01:45:32.843Z,0.80
2019-01-29T01:48:14.948Z,0.80
2019-01-29T01:50:54.061Z,0.80
2019-01-29T01:53:33.364Z,0.80
2019-01-29T01:56:12.428Z,0.80
2019-01-29T01:59:09.624Z,0.70
2019-01-29T02:01:55.666Z,0.70
2019-01-29T02:04:35.619Z,0.80
2019-01-29T02:07:14.792Z,0.70
2019-01-29T02:09:54.845Z,0.70
2019-01-29T02:12:48.021Z,0.70
2019-01-29T02:15:30.154Z,0.70
2019-01-29T02:18:09.268Z,0.70
2019-01-29T02:20:48.566Z,0.70
2019-01-29T02:23:27.661Z,0.80
2019-01-29T02:26:06.774Z,0.70
2019-01-29T02:28:45.834Z,0.70
2019-01-29T02:31:27.879Z,0.70
2019-01-29T02:34:07.195Z,0.80
2019-01-29T02:36:46.413Z,0.80
2019-01-29T02:39:25.582Z,0.80
2019-01-29T02:42:04.712Z,0.90
2019-01-29T02:44:43.779Z,0.90
2019-01-29T02:47:22.894Z,0.80
2019-01-29T02:50:02.910Z,0.80
2019-01-29T02:52:43.059Z,0.90
2019-01-29T02:55:25.153Z,0.90
2019-01-29T02:58:04.451Z,0.90
2019-01-29T03:03:33.543Z,0.80
2019-01-29T03:06:15.519Z,0.80
2019-01-29T03:08:55.404Z,0.70
2019-01-29T03:11:35.469Z,0.70
2019-01-29T03:14:17.586Z,0.70
2019-01-29T03:16:54.773Z,0.70
2019-01-29T03:19:34.602Z,0.60
2019-01-29T03:22:13.896Z,0.60
2019-01-29T03:27:33.256Z,0.50
2019-01-29T03:30:12.402Z,0.50
2019-01-29T03:32:52.444Z,0.50
2019-01-29T03:35:34.809Z,0.50
2019-01-29T03:38:13.932Z,0.50
2019-01-29T03:40:56.057Z,0.50
2019-01-29T03:43:35.991Z,0.40
2019-01-29T03:46:15.976Z,0.40
2019-01-29T03:49:15.144Z,0.40
2019-01-29T03:51:57.575Z,0.40
2019-01-29T03:54:39.816Z,0.40
2019-01-29T03:57:22.041Z,0.40
2019-01-29T04:00:04.343Z,0.40
2019-01-29T04:02:46.538Z,0.50
2019-01-29T04:05:26.434Z,0.50
2019-01-29T04:08:05.812Z,0.50
2019-01-29T04:10:45.916Z,0.50
2019-01-29T04:13:25.921Z,0.50
2019-01-29T04:16:04.994Z,0.60
2019-01-29T04:18:44.091Z,0.60
2019-01-29T04:21:26.296Z,0.60
2019-01-29T04:24:05.685Z,0.60
2019-01-29T04:26:47.691Z,0.70
2019-01-29T04:29:24.829Z,0.70
2019-01-29T04:32:10.865Z,0.70
2019-01-29T04:34:50.059Z,0.70
2019-01-29T04:37:30.036Z,0.80
2019-01-29T04:40:29.123Z,0.80
2019-01-29T04:43:08.362Z,0.80
2019-01-29T04:45:47.613Z,0.80
2019-01-29T04:48:26.697Z,0.80
2019-01-29T04:51:05.751Z,0.80
2019-01-29T04:53:45.820Z,0.80
2019-01-29T04:56:25.003Z,0.80
2019-01-29T04:59:05.085Z,0.70
2019-01-29T05:01:47.226Z,0.60
2019-01-29T05:04:29.315Z,0.60
2019-01-29T05:07:09.342Z,0.60
2019-01-29T05:09:48.594Z,0.50
2019-01-29T05:12:27.728Z,0.50
2019-01-29T05:15:06.805Z,0.50
2019-01-29T05:17:46.840Z,0.50
2019-01-29T05:20:26.764Z,0.50
2019-01-29T05:23:05.922Z,0.50
2019-01-29T05:25:45.017Z,0.50
2019-01-29T05:28:25.041Z,0.50
2019-01-29T05:31:05.052Z,0.50
2019-01-29T05:34:04.246Z,0.60
2019-01-29T05:36:43.524Z,0.60
2019-01-29T05:39:22.742Z,0.50
2019-01-29T05:42:02.783Z,0.50
2019-01-29T05:44:44.806Z,0.50
2019-01-29T05:47:24.777Z,0.50
2019-01-29T05:50:03.922Z,0.40
2019-01-29T05:52:43.066Z,0.50
2019-01-29T05:55:22.997Z,0.50
2019-01-29T05:58:03.047Z,0.50
2019-01-29T06:00:42.323Z,0.50
2019-01-29T06:03:21.564Z,0.50
2019-01-29T06:06:01.638Z,0.50
2019-01-29T06:08:41.792Z,0.50
2019-01-29T06:11:21.771Z,0.60
2019-01-29T06:14:03.881Z,0.50
2019-01-29T06:16:46.055Z,0.40
2019-01-29T06:19:26.124Z,0.40
2019-01-29T06:22:05.327Z,0.40
2019-01-29T06:24:44.513Z,0.30
2019-01-29T06:27:23.608Z,0.30
2019-01-29T06:30:03.046Z,0.30
2019-01-29T06:32:42.892Z,0.30
2019-01-29T06:35:22.233Z,0.30
2019-01-29T06:38:01.387Z,0.30
2019-01-29T06:40:43.375Z,0.30
2019-01-29T06:43:23.336Z,0.30
2019-01-29T06:46:03.478Z,0.40
2019-01-29T06:48:42.568Z,0.30
2019-01-29T06:51:21.649Z,0.40
2019-01-29T06:54:00.752Z,0.30
2019-01-29T06:57:00.165Z,0.30
2019-01-29T06:59:40.010Z,0.30
2019-01-29T07:02:20.067Z,0.40
2019-01-29T07:05:00.267Z,0.40
2019-01-29T07:07:40.272Z,0.40
2019-01-29T07:10:18.558Z,0.40
2019-01-29T07:13:04.588Z,0.40
2019-01-29T07:15:48.456Z,0.50
2019-01-29T07:21:57.450Z,0.50
2019-01-29T07:24:42.647Z,0.50
2019-01-29T07:27:18.099Z,0.50
2019-01-29T07:29:58.105Z,0.60
2019-01-29T07:32:37.249Z,0.50
2019-01-29T07:35:17.210Z,0.60
2019-01-29T07:37:59.100Z,0.60
2019-01-29T07:40:58.461Z,0.60
2019-01-29T07:43:57.698Z,0.70
2019-01-29T07:46:56.841Z,0.70
2019-01-29T07:49:38.969Z,0.70
2019-01-29T07:52:21.130Z,0.70
2019-01-29T07:55:00.298Z,0.70
2019-01-29T07:57:39.534Z,0.70
2019-01-29T08:00:18.695Z,0.70
2019-01-29T08:03:17.750Z,0.70
2019-01-29T08:06:16.905Z,0.80
2019-01-29T08:09:16.160Z,0.70
2019-01-29T08:12:15.332Z,0.70
2019-01-29T08:15:14.708Z,0.70
2019-01-29T08:18:13.941Z,0.70
2019-01-29T08:21:13.027Z,0.70
2019-01-29T08:24:12.213Z,0.80
2019-01-29T08:26:54.484Z,0.80
2019-01-29T08:29:33.569Z,0.90
2019-01-29T08:32:12.633Z,1.00
2019-01-29T08:34:52.529Z,1.00
2019-01-29T08:37:51.758Z,1.00
2019-01-29T08:40:33.844Z,1.00
2019-01-29T08:43:33.062Z,1.10
2019-01-29T08:46:15.488Z,1.10
2019-01-29T08:48:57.501Z,1.10
2019-01-29T08:51:37.555Z,1.10
2019-01-29T08:54:14.774Z,1.00
2019-01-29T08:57:00.850Z,1.20
2019-01-29T08:59:40.654Z,1.20
2019-01-29T09:02:22.829Z,1.30
2019-01-29T09:05:22.062Z,1.30
2019-01-29T09:15:19.207Z,1.00
2019-01-29T09:17:48.356Z,0.90
2019-01-29T09:20:17.511Z,0.90
2019-01-29T09:22:43.859Z,1.00
2019-01-29T09:25:19.496Z,1.10
2019-01-29T09:27:44.129Z,1.20
2019-01-29T09:30:13.040Z,1.20
2019-01-29T09:32:39.315Z,1.20
2019-01-29T09:35:05.783Z,1.30
2019-01-29T09:37:34.908Z,1.30
2019-01-29T09:40:09.998Z,1.30
2019-01-29T09:42:36.251Z,1.40
2019-01-29T09:45:04.185Z,1.40
2019-01-29T09:47:42.641Z,1.40
2019-01-29T09:50:11.820Z,1.40
2019-01-29T09:52:38.572Z,1.50
2019-01-29T09:55:29.497Z,1.50
2019-01-29T09:57:52.537Z,1.60
2019-01-29T10:00:27.508Z,1.60
2019-01-29T10:02:56.245Z,1.70
2019-01-29T10:05:25.350Z,1.70
2019-01-29T10:07:54.380Z,1.80
2019-01-29T10:10:20.507Z,1.80
2019-01-29T10:12:46.724Z,1.80
2019-01-29T10:15:24.596Z,1.80
2019-01-29T10:17:51.066Z,1.90
2019-01-29T10:20:17.340Z,1.90
2019-01-29T10:22:58.717Z,2.00
2019-01-29T10:25:24.895Z,2.00
2019-01-29T10:27:51.061Z,2.10
2019-01-29T10:30:25.227Z,2.20
2019-01-29T10:32:51.378Z,2.20
2019-01-29T10:35:19.958Z,2.30
2019-01-29T10:37:48.675Z,2.30
2019-01-29T10:40:17.016Z,2.40
2019-01-29T10:42:43.304Z,2.40
2019-01-29T10:45:18.111Z,2.50
2019-01-29T10:47:44.364Z,2.60
2019-01-29T10:50:19.624Z,2.60
2019-01-29T10:52:49.193Z,2.70
2019-01-29T10:55:15.450Z,2.70
2019-01-29T10:57:41.996Z,2.70
2019-01-29T11:00:20.440Z,2.70
2019-01-29T11:02:49.412Z,2.80
2019-01-29T11:05:17.922Z,2.80
2019-01-29T11:07:56.308Z,2.80
2019-01-29T11:10:22.643Z,2.90
2019-01-29T11:12:48.835Z,3.00
2019-01-29T11:15:31.903Z,3.00
2019-01-29T11:18:16.709Z,3.10
2019-01-29T11:20:43.050Z,3.20
2019-01-29T11:23:12.067Z,3.20
2019-01-29T11:25:38.281Z,3.30
2019-01-29T11:28:04.785Z,3.30
2019-01-29T11:30:31.650Z,3.30
2019-01-29T11:33:00.997Z,3.40
2019-01-29T11:35:27.267Z,3.40
2019-01-29T11:37:53.471Z,3.30
2019-01-29T11:40:31.325Z,3.30
2019-01-29T11:42:57.571Z,3.30
2019-01-29T11:45:32.770Z,3.40
2019-01-29T11:47:58.973Z,3.40
2019-01-29T11:50:25.141Z,3.50
2019-01-29T11:52:51.283Z,3.50
2019-01-29T11:55:20.132Z,3.50
2019-01-29T11:57:46.897Z,3.50
2019-01-29T12:00:21.891Z,3.50
2019-01-29T12:03:06.529Z,3.60
2019-01-29T12:05:32.768Z,3.50
2019-01-29T12:07:59.032Z,3.60
2019-01-29T12:10:28.074Z,3.70
2019-01-29T12:12:54.478Z,3.80
2019-01-29T12:15:39.021Z,3.90
2019-01-29T12:18:05.466Z,4.00
2019-01-29T12:20:31.704Z,4.10
2019-01-29T12:23:16.848Z,4.10
2019-01-29T12:26:01.724Z,4.00
2019-01-29T12:28:28.068Z,4.00
2019-01-29T12:30:54.314Z,4.10
2019-01-29T12:33:20.567Z,4.20
2019-01-29T12:35:46.743Z,4.20
2019-01-29T12:38:12.965Z,4.30
2019-01-29T12:40:39.304Z,4.30
2019-01-29T12:43:05.454Z,4.30
2019-01-29T12:45:31.699Z,4.50
2019-01-29T12:47:57.892Z,4.60
2019-01-29T12:50:26.553Z,4.70
2019-01-29T12:53:06.753Z,4.60
2019-01-29T12:55:33.040Z,4.50
2019-01-29T12:57:59.204Z,4.40
2019-01-29T13:00:27.252Z,4.40
2019-01-29T13:02:53.476Z,4.40
2019-01-29T13:05:19.799Z,4.40
2019-01-29T13:07:48.542Z,4.50
2019-01-29T13:10:22.692Z,4.50
2019-01-29T13:12:51.728Z,4.50
2019-01-29T13:15:24.278Z,4.70
2019-01-29T13:18:09.025Z,4.90
2019-01-29T13:20:35.181Z,4.90
2019-01-29T13:23:01.429Z,4.90
2019-01-29T13:25:27.623Z,4.90
2019-01-29T13:27:53.792Z,4.90
2019-01-29T13:30:23.241Z,4.90
2019-01-29T13:32:49.571Z,4.90
2019-01-29T13:35:16.170Z,4.90
2019-01-29T13:37:44.867Z,5.10
2019-01-29T13:40:12.831Z,5.10
2019-01-29T13:42:38.980Z,5.00
2019-01-29T13:45:08.746Z,4.90
2019-01-29T13:47:37.683Z,4.90
2019-01-29T13:50:10.328Z,4.90
2019-01-29T13:52:39.169Z,4.90
2019-01-29T13:55:24.222Z,4.90
2019-01-29T13:57:50.543Z,4.90
2019-01-29T14:00:19.944Z,5.00
2019-01-29T14:03:06.313Z,4.90
2019-01-29T14:05:47.964Z,4.90
2019-01-29T14:08:14.168Z,4.90
2019-01-29T14:10:43.086Z,4.80
2019-01-29T14:13:12.104Z,4.90
2019-01-29T14:15:40.277Z,5.00
2019-01-29T14:18:06.887Z,5.00
2019-01-29T14:20:35.843Z,5.00
2019-01-29T14:23:06.748Z,4.90
2019-01-29T14:25:32.919Z,4.80
2019-01-29T14:27:59.168Z,4.70
2019-01-29T14:30:29.508Z,4.70
2019-01-29T14:32:58.370Z,4.80
2019-01-29T14:35:24.624Z,4.80
2019-01-29T14:38:00.413Z,4.70
2019-01-29T14:40:45.351Z,4.70
2019-01-29T14:43:27.072Z,4.60
2019-01-29T14:46:08.518Z,4.50
2019-01-29T14:48:34.656Z,4.40
2019-01-29T14:51:00.864Z,4.40
2019-01-29T14:53:27.014Z,4.40
2019-01-29T14:55:53.274Z,4.30
2019-01-29T14:58:19.424Z,4.30
2019-01-29T15:00:46.012Z,4.20
2019-01-29T15:03:12.182Z,4.30
2019-01-29T15:05:38.348Z,4.30
2019-01-29T15:08:04.692Z,4.30
2019-01-29T15:10:33.976Z,4.20
2019-01-29T15:13:03.808Z,4.20
2019-01-29T15:15:50.122Z,4.20
2019-01-29T15:18:21.592Z,4.20
2019-01-29T15:20:47.813Z,4.20
2019-01-29T15:23:14.058Z,4.20
2019-01-29T15:25:40.315Z,4.10
2019-01-29T15:28:09.292Z,4.10
2019-01-29T15:30:35.563Z,4.10
2019-01-29T15:33:01.748Z,4.00
2019-01-29T15:35:27.951Z,4.00
2019-01-29T15:37:54.675Z,4.00
2019-01-29T15:40:21.978Z,4.00
2019-01-29T15:42:51.414Z,4.00
2019-01-29T15:45:22.636Z,4.00
2019-01-29T15:48:07.263Z,3.90
2019-01-29T15:50:34.748Z,3.80
2019-01-29T15:53:01.188Z,3.80
2019-01-29T15:55:27.332Z,3.70
2019-01-29T15:57:53.475Z,3.70
2019-01-29T16:00:25.722Z,3.60
2019-01-29T16:02:51.868Z,3.50
2019-01-29T16:05:23.484Z,3.40
2019-01-29T16:07:52.372Z,3.30
2019-01-29T16:10:28.112Z,3.30
2019-01-29T16:12:54.287Z,3.20
2019-01-29T16:15:25.061Z,3.20
2019-01-29T16:17:51.320Z,3.10
2019-01-29T16:20:19.594Z,3.00
2019-01-29T16:22:45.836Z,3.00
2019-01-29T16:25:15.184Z,3.00
2019-01-29T16:27:41.405Z,2.90
2019-01-29T16:30:11.368Z,3.00
2019-01-29T16:32:37.535Z,3.00
2019-01-29T16:35:08.656Z,3.00
2019-01-29T16:37:37.416Z,3.00
2019-01-29T16:40:07.420Z,2.90
2019-01-29T16:42:33.564Z,2.90
2019-01-29T16:44:59.695Z,2.90
2019-01-29T16:47:25.910Z,2.80
2019-01-29T16:49:54.924Z,2.80
2019-01-29T16:52:21.096Z,2.70
2019-01-29T16:54:47.259Z,2.70
2019-01-29T16:57:13.407Z,2.60
2019-01-29T16:59:39.540Z,2.60
2019-01-29T17:02:09.139Z,2.50
2019-01-29T17:04:35.343Z,2.50
2019-01-29T17:07:01.537Z,2.40
2019-01-29T17:09:27.788Z,2.40
2019-01-29T17:11:54.008Z,2.40
2019-01-29T17:14:22.789Z,2.40
2019-01-29T17:16:51.539Z,2.30
2019-01-29T17:19:17.685Z,2.30
2019-01-29T17:21:43.833Z,2.30
2019-01-29T17:24:09.983Z,2.20
2019-01-29T17:26:36.131Z,2.20
2019-01-29T17:29:02.488Z,2.20
2019-01-29T17:31:44.028Z,2.10
2019-01-29T17:34:22.316Z,2.10
2019-01-29T17:36:48.488Z,2.10
2019-01-29T17:39:14.634Z,2.00
2019-01-29T17:41:40.808Z,2.00
2019-01-29T17:44:07.152Z,2.00
2019-01-29T17:46:51.965Z,2.00
2019-01-29T17:49:18.214Z,1.90
2019-01-29T17:51:44.371Z,1.90
2019-01-29T17:54:25.740Z,1.90
2019-01-29T17:56:51.901Z,1.80
2019-01-29T17:59:18.070Z,1.80
2019-01-29T18:01:44.259Z,1.80
2019-01-29T18:04:10.513Z,1.80
2019-01-29T18:06:36.704Z,1.80
2019-01-29T18:09:06.668Z,1.80
2019-01-29T18:11:50.987Z,1.80
2019-01-29T18:14:17.181Z,1.80
2019-01-29T18:16:43.340Z,1.80
2019-01-29T18:19:09.585Z,1.70
2019-01-29T18:21:38.546Z,1.80
2019-01-29T18:24:04.809Z,1.80
2019-01-29T18:26:33.506Z,1.80
2019-01-29T18:28:59.799Z,1.70
2019-01-29T18:31:25.951Z,1.70
2019-01-29T18:33:52.110Z,1.70
2019-01-29T18:36:18.248Z,1.70
2019-01-29T18:38:47.036Z,1.70
2019-01-29T18:41:13.187Z,1.70
2019-01-29T18:43:39.341Z,1.60
2019-01-29T18:46:05.487Z,1.60
2019-01-29T18:48:34.585Z,1.60
2019-01-29T18:51:00.724Z,1.60
2019-01-29T18:53:26.960Z,1.60
2019-01-29T18:55:53.097Z,1.60
2019-01-29T18:58:19.330Z,1.70
2019-01-29T19:00:54.294Z,1.70
2019-01-29T19:03:16.662Z,1.70
2019-01-29T19:05:42.816Z,1.70
2019-01-29T19:08:11.933Z,1.70
2019-01-29T19:10:38.091Z,1.70
2019-01-29T19:13:22.796Z,1.70
2019-01-29T19:15:51.490Z,1.80
2019-01-29T19:18:17.644Z,1.70
2019-01-29T19:20:43.804Z,1.70
2019-01-29T19:23:28.409Z,1.70
2019-01-29T19:25:54.581Z,1.70
2019-01-29T19:28:39.144Z,1.70
2019-01-29T19:31:05.290Z,1.70
2019-01-29T19:33:31.468Z,1.70
2019-01-29T19:35:57.613Z,1.70
2019-01-29T19:38:23.794Z,1.70
2019-01-29T19:40:52.547Z,1.70
2019-01-29T19:43:18.700Z,1.70
2019-01-29T19:45:44.903Z,1.60
2019-01-29T19:48:11.063Z,1.60
2019-01-29T19:50:37.249Z,1.60
2019-01-29T19:53:21.858Z,1.60
2019-01-29T19:55:48.013Z,1.60
2019-01-29T19:58:14.263Z,1.60
2019-01-29T20:00:40.627Z,1.60
2019-01-29T20:03:09.364Z,1.60
2019-01-29T20:05:35.608Z,1.50
2019-01-29T20:08:04.564Z,1.50
2019-01-29T20:10:30.728Z,1.50
2019-01-29T20:12:56.989Z,1.40
2019-01-29T20:15:26.165Z,1.40
2019-01-29T20:17:56.616Z,1.40
2019-01-29T20:20:29.541Z,1.40
2019-01-29T20:23:08.581Z,1.30
2019-01-29T20:25:53.790Z,1.30
2019-01-29T20:28:20.085Z,1.20
2019-01-29T20:30:49.203Z,1.20
2019-01-29T20:33:15.453Z,1.20
2019-01-29T20:35:41.627Z,1.20
2019-01-29T20:38:07.802Z,1.20
2019-01-29T20:40:34.043Z,1.20
2019-01-29T20:43:00.350Z,1.10
2019-01-29T20:45:26.593Z,1.20
2019-01-29T20:47:52.853Z,1.20
2019-01-29T20:50:31.772Z,1.10
2019-01-29T20:52:57.905Z,1.10
2019-01-29T20:55:24.293Z,1.10
2019-01-29T20:57:50.626Z,1.10
2019-01-29T21:00:38.562Z,1.10
2019-01-29T21:03:07.658Z,1.10
2019-01-29T21:05:36.767Z,1.10
2019-01-29T21:08:05.969Z,1.10
2019-01-29T21:10:35.119Z,1.10
2019-01-29T21:13:07.344Z,1.10
2019-01-29T21:15:52.096Z,1.10
2019-01-29T21:18:18.264Z,1.00
2019-01-29T21:20:56.634Z,1.00
2019-01-29T21:23:18.154Z,1.00
2019-01-29T21:25:47.119Z,1.00
2019-01-29T21:28:32.107Z,1.00
2019-01-29T21:31:01.288Z,1.00
2019-01-29T21:33:30.259Z,1.00
2019-01-29T21:35:56.418Z,1.00
2019-01-29T21:38:22.570Z,1.00
2019-01-29T21:40:48.725Z,1.00
2019-01-29T21:43:14.885Z,1.00
2019-01-29T21:45:41.137Z,1.10
2019-01-29T21:48:07.327Z,1.00
2019-01-29T21:50:51.931Z,1.00
2019-01-29T21:53:18.120Z,1.00
2019-01-29T21:55:44.371Z,1.00
2019-01-29T21:58:10.520Z,1.00
2019-01-29T22:00:39.088Z,1.00
2019-01-29T22:03:08.100Z,1.00
2019-01-29T22:05:37.289Z,1.00
2019-01-29T22:08:04.148Z,1.00
2019-01-29T22:10:48.888Z,1.00
2019-01-29T22:13:15.080Z,0.90
2019-01-29T22:15:41.391Z,0.90
2019-01-29T22:18:07.902Z,0.90
2019-01-29T22:20:34.168Z,0.90
2019-01-29T22:23:00.411Z,0.90
2019-01-29T22:25:26.648Z,0.90
2019-01-29T22:27:52.820Z,0.90
2019-01-29T22:30:27.471Z,0.90
2019-01-29T22:32:53.759Z,0.80
2019-01-29T22:35:19.940Z,0.80
2019-01-29T22:37:46.182Z,0.80
2019-01-29T22:40:17.583Z,0.80
2019-01-29T22:42:46.573Z,0.80
2019-01-29T22:45:15.155Z,0.80
2019-01-29T22:47:41.328Z,0.80
2019-01-29T22:50:11.178Z,0.80
2019-01-29T22:52:52.552Z,0.70
2019-01-29T22:55:21.251Z,0.70
2019-01-29T22:57:47.419Z,0.70
2019-01-29T23:00:43.005Z,0.70
2019-01-29T23:03:09.677Z,0.70
2019-01-29T23:05:37.961Z,0.70
2019-01-29T23:08:03.979Z,0.70
2019-01-29T23:10:30.138Z,0.70
2019-01-29T23:13:08.518Z,0.60
2019-01-29T23:15:34.671Z,0.60
2019-01-29T23:18:00.809Z,0.60
2019-01-29T23:20:29.587Z,0.60
2019-01-29T23:22:55.737Z,0.60
2019-01-29T23:25:21.935Z,0.60
2019-01-29T23:27:48.092Z,0.60
2019-01-29T23:30:19.482Z,0.60
2019-01-29T23:32:45.631Z,0.60
2019-01-29T23:35:12.296Z,0.60
2019-01-29T23:37:41.300Z,0.60
2019-01-29T23:40:16.459Z,0.60
2019-01-29T23:42:43.070Z,0.60
2019-01-29T23:45:24.328Z,0.60
2019-01-29T23:48:03.331Z,0.60
2019-01-29T23:50:30.040Z,0.50
2019-01-29T23:52:56.334Z,0.60
2019-01-29T23:55:22.572Z,0.60
2019-01-29T23:57:48.728Z,0.50
